Time;durP1;ratioP1;P1;durP2;ratioP2;P2;SDS_P1;SDS_P2;PMS_P1;PMS_P2;Temp;Humidity;BMP_temperature;BMP_pressure;BME280_temperature;BME280_humidity;BME280_pressure;Samples;Min_cycle;Max_cycle;Signal;HPM_P1;HPM_P2
2022/08/13 00:00:09;;;;;;;;;;;25.90;57.00;26.00;99013.00;;;;344108;28;90643;-92
2022/08/13 00:00:22;;;;;;;;;;;25.90;57.30;26.00;99024.00;;;;340567;28;83516;-92
2022/08/13 00:00:35;;;;;;;;;;;25.90;57.80;25.90;99023.00;;;;341553;28;87749;-92
2022/08/13 00:00:59;;;;;;;;;;;25.90;57.40;25.90;99013.00;;;;344640;28;83378;-92
2022/08/13 00:01:13;;;;;;;;;;;25.90;57.20;25.90;99018.00;;;;341392;28;91513;-93
2022/08/13 00:01:30;;;;;;;;;;;25.90;57.10;25.90;99026.00;;;;341783;28;83440;-92
2022/08/13 00:01:44;;;;;;;;;;;25.90;56.90;25.90;99020.00;;;;341512;28;90588;-92
2022/08/13 00:02:10;;;;;;;;;;;25.90;56.90;26.00;99020.00;;;;345894;28;83568;-92
2022/08/13 00:02:28;;;;;;;;;;;25.90;56.90;26.00;99019.00;;;;342859;28;91710;-92
2022/08/13 00:02:42;;;;;;;;;;;25.90;56.70;25.90;99017.00;;;;342117;28;82375;-92
2022/08/13 00:02:59;;;;;;;;;;;25.90;57.10;25.90;99021.00;;;;343013;28;90937;-92
2022/08/13 00:03:14;;;;;;;;;;;25.90;57.10;25.70;99024.00;;;;343345;28;83275;-92
2022/08/13 00:03:46;;;;;;;;;;;25.90;57.40;25.50;99025.00;;;;343091;28;90662;-92
2022/08/13 00:04:13;;;;;;;;;;;25.90;57.50;25.60;99023.00;;;;341999;28;83394;-93
2022/08/13 00:04:44;;;;;;;;;;;25.80;57.20;25.60;99020.00;;;;340226;28;90380;-92
2022/08/13 00:05:01;;;;;;;;;;;25.80;57.10;25.50;99024.00;;;;343252;28;83424;-92
2022/08/13 00:05:33;;;;;;;;;;;25.80;57.20;25.50;99019.00;;;;341664;28;90217;-92
2022/08/13 00:05:54;;;;;;;;;;;25.80;57.30;25.50;99017.00;;;;342036;28;83277;-93
2022/08/13 00:06:08;;;;;;;;;;;25.80;57.20;25.50;99020.00;;;;345524;28;91233;-92
2022/08/13 00:07:07;;;;;;;;;;;25.70;57.10;25.40;99021.00;;;;341587;28;90046;-92
2022/08/13 00:07:19;;;;;;;;;;;25.70;57.40;25.40;99023.00;;;;344783;28;82546;-92
2022/08/13 00:07:32;;;;;;;;;;;25.60;57.20;25.50;99026.00;;;;339963;28;93191;-92
2022/08/13 00:07:49;;;;;;;;;;;25.60;57.10;25.60;99021.00;;;;341962;28;83509;-92
2022/08/13 00:08:01;;;;;;;;;;;25.70;57.20;25.60;99026.00;;;;341499;28;89635;-92
2022/08/13 00:08:14;;;;;;;;;;;25.60;57.10;25.50;99021.00;;;;344518;28;83519;-92
2022/08/13 00:08:26;;;;;;;;;;;25.70;57.20;25.50;99020.00;;;;341673;28;88260;-92
2022/08/13 00:08:39;;;;;;;;;;;25.60;57.10;25.50;99026.00;;;;342070;28;82527;-92
2022/08/13 00:08:51;;;;;;;;;;;25.60;56.90;25.60;99022.00;;;;338809;28;91323;-92
2022/08/13 00:09:06;;;;;;;;;;;25.60;56.70;25.50;99020.00;;;;342122;28;82363;-92
2022/08/13 00:09:37;;;;;;;;;;;25.60;57.00;25.50;99026.00;;;;342884;28;90512;-92
2022/08/13 00:09:51;;;;;;;;;;;25.60;56.90;25.50;99026.00;;;;342122;28;83353;-92
2022/08/13 00:10:06;;;;;;;;;;;25.60;57.30;25.50;99029.00;;;;344198;28;92037;-93
2022/08/13 00:10:28;;;;;;;;;;;25.60;57.10;25.60;99026.00;;;;343181;28;82353;-92
2022/08/13 00:10:42;;;;;;;;;;;25.60;57.10;25.50;99026.00;;;;341492;28;90379;-92
2022/08/13 00:10:54;;;;;;;;;;;25.60;57.20;25.40;99025.00;;;;342867;28;83524;-91
2022/08/13 00:12:56;;;;;;;;;;;25.60;57.30;25.50;99030.00;;;;341313;28;91555;-92
2022/08/13 00:13:03;;;;;;;;;;;25.50;56.90;25.70;99024.00;;;;344613;28;83500;-92
2022/08/13 00:13:18;;;;;;;;;;;25.60;56.80;25.80;99017.00;;;;342776;28;90530;-92
2022/08/13 00:13:29;;;;;;;;;;;25.60;56.80;25.80;99018.00;;;;341989;28;83423;-92
2022/08/13 00:13:55;;;;;;;;;;;25.60;56.90;25.70;99015.00;;;;347050;28;91695;-92
2022/08/13 00:14:10;;;;;;;;;;;25.60;57.00;25.70;99016.00;;;;346042;28;83417;-92
2022/08/13 00:14:33;;;;;;;;;;;25.60;57.20;25.60;99030.00;;;;341398;28;89634;-92
2022/08/13 00:14:52;;;;;;;;;;;25.60;57.30;25.60;99023.00;;;;344628;28;83488;-93
2022/08/13 00:15:09;;;;;;;;;;;25.60;57.20;25.50;99021.00;;;;341484;28;90699;-92
2022/08/13 00:15:38;;;;;;;;;;;25.60;57.30;25.60;99028.00;;;;342053;28;83573;-92
2022/08/13 00:15:51;;;;;;;;;;;25.60;57.00;25.60;99021.00;;;;341497;28;90374;-92
2022/08/13 00:16:08;;;;;;;;;;;25.60;57.20;25.40;99024.00;;;;343376;28;82521;-92
2022/08/13 00:16:21;;;;;;;;;;;25.60;57.20;25.40;99017.00;;;;345745;28;89887;-92
2022/08/13 00:16:34;;;;;;;;;;;25.60;57.30;25.40;99021.00;;;;344791;28;83244;-92
2022/08/13 00:16:46;;;;;;;;;;;25.60;57.40;25.30;99020.00;;;;343054;28;90712;-92
2022/08/13 00:17:06;;;;;;;;;;;25.60;57.40;25.30;99022.00;;;;343420;28;83515;-92
2022/08/13 00:17:20;;;;;;;;;;;25.60;57.40;25.30;99019.00;;;;341585;28;91388;-92
2022/08/13 00:17:52;;;;;;;;;;;25.50;57.40;25.20;99019.00;;;;342079;28;83182;-92
2022/08/13 00:18:17;;;;;;;;;;;25.50;57.50;25.20;99025.00;;;;342735;28;89356;-92
2022/08/13 00:18:40;;;;;;;;;;;25.50;57.70;25.20;99024.00;;;;343262;28;82559;-92
2022/08/13 00:18:52;;;;;;;;;;;25.50;57.70;25.30;99017.00;;;;341594;28;89116;-92
2022/08/13 00:19:04;;;;;;;;;;;25.50;57.60;25.30;99019.00;;;;343203;28;83798;-92
2022/08/13 00:19:16;;;;;;;;;;;25.50;57.40;25.30;99019.00;;;;341636;28;92081;-92
2022/08/13 00:19:30;;;;;;;;;;;25.50;57.20;25.30;99020.00;;;;340445;28;82599;-92
2022/08/13 00:19:43;;;;;;;;;;;25.50;57.30;25.30;99017.00;;;;341558;28;91571;-92
2022/08/13 00:20:04;;;;;;;;;;;25.50;57.50;25.30;99023.00;;;;342080;28;83423;-93
2022/08/13 00:20:20;;;;;;;;;;;25.50;57.70;25.20;99017.00;;;;340225;28;90438;-92
2022/08/13 00:20:39;;;;;;;;;;;25.40;57.50;25.20;99019.00;;;;342031;28;82542;-93
2022/08/13 00:20:55;;;;;;;;;;;25.40;57.60;25.10;99020.00;;;;344281;28;91172;-92
2022/08/13 00:21:09;;;;;;;;;;;25.40;57.60;25.10;99022.00;;;;340637;28;83485;-93
2022/08/13 00:21:23;;;;;;;;;;;25.40;57.70;25.20;99018.00;;;;342809;28;90364;-93
2022/08/13 00:21:55;;;;;;;;;;;25.40;57.70;25.20;99021.00;;;;343380;28;82537;-92
2022/08/13 00:22:26;;;;;;;;;;;25.40;58.00;25.30;99015.00;;;;343050;28;90654;-92
2022/08/13 00:22:42;;;;;;;;;;;25.40;57.30;25.30;99017.00;;;;344639;28;83463;-93
2022/08/13 00:23:13;;;;;;;;;;;25.40;57.30;25.10;99025.00;;;;341354;28;92487;-93
2022/08/13 00:23:32;;;;;;;;;;;25.40;57.80;25.10;99021.00;;;;340617;28;83520;-92
2022/08/13 00:24:04;;;;;;;;;;;25.30;57.90;25.10;99022.00;;;;344302;28;91078;-92
2022/08/13 00:24:38;;;;;;;;;;;25.40;57.90;25.10;99020.00;;;;340678;28;82466;-92
2022/08/13 00:25:05;;;;;;;;;;;25.30;57.90;25.10;99020.00;;;;337637;28;91536;-92
2022/08/13 00:25:21;;;;;;;;;;;25.30;58.20;25.10;99023.00;;;;343511;28;83297;-92
2022/08/13 00:25:33;;;;;;;;;;;25.30;58.10;25.00;99013.00;;;;344263;28;91378;-92
2022/08/13 00:25:57;;;;;;;;;;;25.30;58.00;25.20;99022.00;;;;343505;28;82501;-92
2022/08/13 00:26:11;;;;;;;;;;;25.30;57.90;25.40;99017.00;;;;344331;28;91212;-92
2022/08/13 00:26:41;;;;;;;;;;;25.30;57.80;25.30;99024.00;;;;343457;28;82551;-93
2022/08/13 00:26:59;;;;;;;;;;;25.30;57.90;25.30;99018.00;;;;342796;28;92449;-92
2022/08/13 00:27:11;;;;;;;;;;;25.30;57.50;25.40;99022.00;;;;343403;28;82428;-92
2022/08/13 00:27:27;;;;;;;;;;;25.30;57.30;25.30;99018.00;;;;343009;28;91899;-92
2022/08/13 00:28:00;;;;;;;;;;;25.30;58.30;25.40;99024.00;;;;344791;28;83174;-92
2022/08/13 00:28:18;;;;;;;;;;;25.30;57.50;25.40;99018.00;;;;343996;28;90511;-92
2022/08/13 00:28:32;;;;;;;;;;;25.30;57.60;25.40;99016.00;;;;343202;28;82358;-91
2022/08/13 00:28:43;;;;;;;;;;;25.30;57.60;25.40;99015.00;;;;341635;28;89555;-92
2022/08/13 00:28:57;;;;;;;;;;;25.30;57.60;25.40;99015.00;;;;344569;28;82521;-93
2022/08/13 00:29:09;;;;;;;;;;;25.30;57.80;25.30;99019.00;;;;342792;28;90403;-93
2022/08/13 00:29:22;;;;;;;;;;;25.30;57.90;25.30;99015.00;;;;340597;28;83411;-92
2022/08/13 00:29:37;;;;;;;;;;;25.30;57.90;25.30;99021.00;;;;342627;28;92660;-93
2022/08/13 00:29:56;;;;;;;;;;;25.30;57.90;25.30;99020.00;;;;343180;28;83294;-93
2022/08/13 00:30:11;;;;;;;;;;;25.30;58.10;25.20;99020.00;;;;340070;28;90351;-92
2022/08/13 00:30:33;;;;;;;;;;;25.30;58.40;25.20;99021.00;;;;343284;28;83539;-92
2022/08/13 00:30:46;;;;;;;;;;;25.30;58.10;25.30;99023.00;;;;341687;28;90462;-92
2022/08/13 00:30:59;;;;;;;;;;;25.30;57.90;25.30;99016.00;;;;340538;28;82602;-92
2022/08/13 00:31:12;;;;;;;;;;;25.30;57.90;25.10;99024.00;;;;340334;28;90338;-92
2022/08/13 00:31:32;;;;;;;;;;;25.30;58.00;25.10;99021.00;;;;340447;28;83503;-92
2022/08/13 00:31:48;;;;;;;;;;;25.30;58.20;25.10;99016.00;;;;341658;28;90285;-93
2022/08/13 00:32:00;;;;;;;;;;;25.30;58.20;25.20;99020.00;;;;341847;28;83444;-93
2022/08/13 00:32:14;;;;;;;;;;;25.20;58.00;25.10;99017.00;;;;342699;28;91376;-92
2022/08/13 00:32:29;;;;;;;;;;;25.30;58.20;25.20;99019.00;;;;342079;28;83401;-93
2022/08/13 00:32:44;;;;;;;;;;;25.30;58.20;25.20;99018.00;;;;341392;28;91045;-93
2022/08/13 00:33:12;;;;;;;;;;;25.30;58.20;25.00;99019.00;;;;343342;28;83501;-93
2022/08/13 00:33:25;;;;;;;;;;;25.20;58.10;25.10;99021.00;;;;341482;28;90659;-93
2022/08/13 00:33:58;;;;;;;;;;;25.30;58.20;25.10;99028.00;;;;340725;28;82461;-93
2022/08/13 00:34:10;;;;;;;;;;;25.20;58.30;25.10;99022.00;;;;341454;28;89904;-92
2022/08/13 00:34:23;;;;;;;;;;;25.30;58.20;25.10;99020.00;;;;343448;28;83257;-92
2022/08/13 00:34:35;;;;;;;;;;;25.20;57.90;25.10;99023.00;;;;341383;28;91332;-92
2022/08/13 00:34:49;;;;;;;;;;;25.20;58.10;25.10;99022.00;;;;343045;28;83417;-92
2022/08/13 00:35:01;;;;;;;;;;;25.20;57.90;25.10;99020.00;;;;338857;28;91389;-92
2022/08/13 00:35:14;;;;;;;;;;;25.20;57.60;25.20;99025.00;;;;340739;28;82483;-93
2022/08/13 00:35:37;;;;;;;;;;;25.20;57.60;25.20;99024.00;;;;342689;28;89576;-92
2022/08/13 00:35:51;;;;;;;;;;;25.20;57.70;25.20;99028.00;;;;341788;28;83425;-92
2022/08/13 00:36:04;;;;;;;;;;;25.20;57.90;25.20;99013.00;;;;342988;28;90649;-92
2022/08/13 00:36:21;;;;;;;;;;;25.20;57.80;25.20;99019.00;;;;343273;28;83248;-92
2022/08/13 00:36:48;;;;;;;;;;;25.20;57.90;25.30;99022.00;;;;341338;28;90677;-92
2022/08/13 00:37:17;;;;;;;;;;;25.20;58.10;25.20;99028.00;;;;339239;28;83487;-92
2022/08/13 00:37:37;;;;;;;;;;;25.20;57.70;25.20;99017.00;;;;341500;28;92287;-92
2022/08/13 00:38:11;;;;;;;;;;;25.20;58.10;25.30;99019.00;;;;343205;28;83366;-93
2022/08/13 00:38:24;;;;;;;;;;;25.20;58.10;25.30;99018.00;;;;344105;28;91544;-92
2022/08/13 00:38:47;;;;;;;;;;;25.20;57.90;25.40;99018.00;;;;340357;28;83253;-93
2022/08/13 00:39:09;;;;;;;;;;;25.20;57.80;25.30;99022.00;;;;339935;28;90837;-92
2022/08/13 00:39:21;;;;;;;;;;;25.20;57.90;25.30;99028.00;;;;343211;28;83443;-92
2022/08/13 00:39:38;;;;;;;;;;;25.20;57.80;25.30;99018.00;;;;341322;28;90545;-92
2022/08/13 00:40:11;;;;;;;;;;;25.20;57.90;25.10;99018.00;;;;342008;28;82472;-93
2022/08/13 00:40:46;;;;;;;;;;;25.20;58.40;25.20;99025.00;;;;341520;28;90443;-92
2022/08/13 00:41:13;;;;;;;;;;;25.20;58.00;25.10;99025.00;;;;340503;28;83493;-93
2022/08/13 00:41:37;;;;;;;;;;;25.20;58.40;25.00;99022.00;;;;341535;28;91178;-92
2022/08/13 00:42:09;;;;;;;;;;;25.20;58.40;25.10;99018.00;;;;340617;28;83279;-93
2022/08/13 00:42:21;;;;;;;;;;;25.20;58.10;25.10;99026.00;;;;340204;28;92189;-92
2022/08/13 00:42:35;;;;;;;;;;;25.20;58.00;25.00;99023.00;;;;341826;28;83522;-92
2022/08/13 00:43:03;;;;;;;;;;;25.20;58.20;25.00;99026.00;;;;342796;28;91494;-92
2022/08/13 00:43:17;;;;;;;;;;;25.20;58.30;24.90;99020.00;;;;339162;28;83486;-92
2022/08/13 00:43:33;;;;;;;;;;;25.10;58.70;25.00;99020.00;;;;342666;28;90455;-92
2022/08/13 00:43:46;;;;;;;;;;;25.10;58.40;25.10;99025.00;;;;340712;28;83519;-92
2022/08/13 00:43:58;;;;;;;;;;;25.10;57.90;25.10;99021.00;;;;341601;28;90551;-92
2022/08/13 00:44:11;;;;;;;;;;;25.10;57.80;25.00;99027.00;;;;341878;28;82440;-92
2022/08/13 00:44:23;;;;;;;;;;;25.10;58.30;25.00;99029.00;;;;342944;28;91360;-93
2022/08/13 00:44:35;;;;;;;;;;;25.10;58.40;25.00;99023.00;;;;340786;28;82297;-92
2022/08/13 00:44:47;;;;;;;;;;;25.10;58.40;24.90;99022.00;;;;340192;28;91111;-92
2022/08/13 00:44:59;;;;;;;;;;;25.10;58.60;25.00;99024.00;;;;341917;28;83606;-92
2022/08/13 00:45:19;;;;;;;;;;;25.10;58.40;25.20;99025.00;;;;341610;28;90417;-93
2022/08/13 00:45:32;;;;;;;;;;;25.10;58.20;25.20;99021.00;;;;344556;28;82690;-93
2022/08/13 00:45:44;;;;;;;;;;;25.10;58.10;25.30;99026.00;;;;340080;28;90637;-92
2022/08/13 00:45:56;;;;;;;;;;;25.10;58.00;25.30;99030.00;;;;341780;28;83558;-93
2022/08/13 00:46:08;;;;;;;;;;;25.10;58.20;25.30;99019.00;;;;341316;28;91786;-92
2022/08/13 00:46:20;;;;;;;;;;;25.10;58.10;25.10;99011.00;;;;343302;28;82547;-92
2022/08/13 00:46:33;;;;;;;;;;;25.20;58.40;25.20;99019.00;;;;341621;28;91392;-93
2022/08/13 00:46:46;;;;;;;;;;;25.10;58.30;25.10;99022.00;;;;341814;28;83554;-92
2022/08/13 00:48:42;;;;;;;;;;;25.10;58.30;24.90;99024.00;;;;344516;28;83570;-92
2022/08/13 00:49:03;;;;;;;;;;;25.10;58.50;24.80;99026.00;;;;341387;28;90772;-93
2022/08/13 00:49:16;;;;;;;;;;;25.10;58.90;24.70;99028.00;;;;343151;28;83535;-93
2022/08/13 00:49:28;;;;;;;;;;;25.10;58.90;24.80;99016.00;;;;338887;28;92216;-93
2022/08/13 00:49:41;;;;;;;;;;;25.00;58.60;24.90;99019.00;;;;340639;28;82592;-93
2022/08/13 00:50:13;;;;;;;;;;;25.00;58.50;25.20;99021.00;;;;342659;28;90949;-92
2022/08/13 00:50:26;;;;;;;;;;;25.10;58.30;25.10;99017.00;;;;340708;28;83433;-93
2022/08/13 00:50:39;;;;;;;;;;;25.10;58.10;25.00;99021.00;;;;341591;28;91420;-92
2022/08/13 00:50:53;;;;;;;;;;;25.10;58.50;25.00;99013.00;;;;340586;28;82418;-92
2022/08/13 00:51:08;;;;;;;;;;;25.10;58.90;25.00;99019.00;;;;340129;28;88956;-92
2022/08/13 00:51:21;;;;;;;;;;;25.00;58.70;24.90;99017.00;;;;343400;28;82428;-92
2022/08/13 00:51:55;;;;;;;;;;;25.00;58.70;24.90;99019.00;;;;340146;28;90633;-92
2022/08/13 00:52:10;;;;;;;;;;;25.00;59.00;25.00;99018.00;;;;343172;28;83526;-93
2022/08/13 00:52:26;;;;;;;;;;;25.00;58.50;25.00;99024.00;;;;341527;28;89396;-93
2022/08/13 00:52:39;;;;;;;;;;;25.00;58.40;25.00;99020.00;;;;341953;28;82482;-92
2022/08/13 00:52:51;;;;;;;;;;;25.00;58.60;25.00;99021.00;;;;341335;28;90818;-92
2022/08/13 00:53:03;;;;;;;;;;;25.00;58.70;25.00;99016.00;;;;341826;28;83434;-92
2022/08/13 00:53:18;;;;;;;;;;;25.00;58.60;24.90;99023.00;;;;341350;28;92538;-92
2022/08/13 00:53:36;;;;;;;;;;;25.00;58.80;24.90;99018.00;;;;341960;28;83468;-92
2022/08/13 00:53:56;;;;;;;;;;;25.00;58.50;25.00;99019.00;;;;341608;28;90437;-93
2022/08/13 00:54:22;;;;;;;;;;;25.00;58.50;24.80;99026.00;;;;340580;28;83350;-92
2022/08/13 00:54:34;;;;;;;;;;;25.00;58.80;24.80;99019.00;;;;341356;28;90655;-93
2022/08/13 00:54:49;;;;;;;;;;;25.00;58.70;24.70;99022.00;;;;343258;28;82658;-92
2022/08/13 00:55:17;;;;;;;;;;;25.00;58.80;25.00;99024.00;;;;341458;28;90213;-92
2022/08/13 00:55:34;;;;;;;;;;;24.90;58.60;24.90;99018.00;;;;341859;28;82351;-93
2022/08/13 00:55:48;;;;;;;;;;;25.00;58.70;24.90;99019.00;;;;340012;28;91614;-93
2022/08/13 00:56:00;;;;;;;;;;;24.90;58.80;24.90;99016.00;;;;343376;28;82428;-93
2022/08/13 00:56:12;;;;;;;;;;;24.90;58.60;24.80;99017.00;;;;342770;28;91080;-92
2022/08/13 00:56:25;;;;;;;;;;;24.90;58.70;24.80;99019.00;;;;344797;28;82458;-93
2022/08/13 00:56:37;;;;;;;;;;;24.90;58.70;24.80;99016.00;;;;344090;28;89414;-92
2022/08/13 00:56:52;;;;;;;;;;;25.00;58.80;24.90;99013.00;;;;340485;28;82556;-92
2022/08/13 00:57:06;;;;;;;;;;;25.00;58.60;25.00;99020.00;;;;342931;28;90332;-93
2022/08/13 00:57:18;;;;;;;;;;;24.90;58.60;25.10;99023.00;;;;340679;28;82375;-92
2022/08/13 00:57:36;;;;;;;;;;;24.90;58.60;25.20;99015.00;;;;342662;28;89433;-93
2022/08/13 00:57:50;;;;;;;;;;;24.90;58.70;25.10;99020.00;;;;341814;28;83256;-93
2022/08/13 00:58:04;;;;;;;;;;;25.00;59.00;25.00;99014.00;;;;341373;28;91373;-92
2022/08/13 00:58:16;;;;;;;;;;;25.00;59.10;25.00;99020.00;;;;343163;28;83563;-92
2022/08/13 00:58:28;;;;;;;;;;;24.90;59.00;25.00;99010.00;;;;341686;28;91243;-92
2022/08/13 00:58:44;;;;;;;;;;;24.90;58.70;24.80;99018.00;;;;342383;28;83436;-93
2022/08/13 00:58:56;;;;;;;;;;;25.00;58.80;24.90;99019.00;;;;341814;28;91766;-92
2022/08/13 00:59:13;;;;;;;;;;;24.90;58.70;24.90;99015.00;;;;341071;28;82563;-90
2022/08/13 00:59:25;;;;;;;;;;;24.90;58.70;25.00;99015.00;;;;340598;28;91542;-92
2022/08/13 00:59:54;;;;;;;;;;;24.90;58.60;25.10;99021.00;;;;340899;28;83548;-92
2022/08/13 01:00:11;;;;;;;;;;;24.90;58.50;25.20;99019.00;;;;343111;28;90181;-93
2022/08/13 01:00:24;;;;;;;;;;;25.00;58.70;25.10;99019.00;;;;341076;28;83351;-92
2022/08/13 01:00:38;;;;;;;;;;;25.00;58.60;25.00;99020.00;;;;340571;28;90222;-93
2022/08/13 01:00:57;;;;;;;;;;;25.00;58.60;25.10;99016.00;;;;343548;28;83404;-92
2022/08/13 01:01:13;;;;;;;;;;;25.00;58.80;25.10;99021.00;;;;341687;28;90360;-92
2022/08/13 01:01:35;;;;;;;;;;;25.00;58.80;25.00;99025.00;;;;340899;28;83395;-92
2022/08/13 01:01:47;;;;;;;;;;;25.00;59.10;25.00;99016.00;;;;340401;28;91582;-92
2022/08/13 01:02:00;;;;;;;;;;;25.00;59.40;25.00;99019.00;;;;342048;28;82634;-92
2022/08/13 01:02:13;;;;;;;;;;;24.90;59.20;25.00;99011.00;;;;342883;28;90500;-92
2022/08/13 01:02:28;;;;;;;;;;;25.00;59.10;24.90;99024.00;;;;344672;28;83459;-93
2022/08/13 01:02:50;;;;;;;;;;;24.90;59.20;24.90;99016.00;;;;340392;28;91742;-93
2022/08/13 01:03:08;;;;;;;;;;;24.90;58.80;24.90;99020.00;;;;339308;28;83528;-92
2022/08/13 01:03:31;;;;;;;;;;;24.90;58.90;24.90;99022.00;;;;344256;28;91117;-92
2022/08/13 01:04:03;;;;;;;;;;;24.90;59.00;25.00;99024.00;;;;343490;28;83360;-92
2022/08/13 01:04:22;;;;;;;;;;;24.90;58.80;25.00;99026.00;;;;344272;28;90317;-93
2022/08/13 01:04:38;;;;;;;;;;;24.90;59.30;25.00;99021.00;;;;341917;28;83532;-92
2022/08/13 01:04:53;;;;;;;;;;;24.90;59.20;24.90;99020.00;;;;341619;28;89671;-92
2022/08/13 01:05:09;;;;;;;;;;;24.90;59.10;25.00;99018.00;;;;342009;28;82618;-93
2022/08/13 01:05:24;;;;;;;;;;;24.90;58.80;25.00;99020.00;;;;341931;28;90406;-93
2022/08/13 01:05:43;;;;;;;;;;;24.90;58.80;24.90;99022.00;;;;342213;28;83396;-94
2022/08/13 01:05:59;;;;;;;;;;;24.90;59.20;24.80;99027.00;;;;341468;28;89424;-93
2022/08/13 01:06:11;;;;;;;;;;;24.90;59.50;24.80;99021.00;;;;342015;28;82856;-93
2022/08/13 01:06:26;;;;;;;;;;;24.90;59.40;24.80;99029.00;;;;341470;28;91875;-93
2022/08/13 01:06:40;;;;;;;;;;;24.90;59.10;24.70;99024.00;;;;343435;28;82509;-93
2022/08/13 01:07:01;;;;;;;;;;;24.90;59.20;24.60;99025.00;;;;342620;28;91359;-92
2022/08/13 01:07:23;;;;;;;;;;;24.90;59.60;24.80;99025.00;;;;341846;28;83502;-93
2022/08/13 01:07:55;;;;;;;;;;;24.90;59.30;24.70;99024.00;;;;344388;28;90166;-93
2022/08/13 01:08:10;;;;;;;;;;;24.80;59.60;24.70;99028.00;;;;341879;28;83460;-93
2022/08/13 01:08:34;;;;;;;;;;;24.80;59.50;24.70;99021.00;;;;341435;28;90561;-92
2022/08/13 01:08:48;;;;;;;;;;;24.80;59.80;24.70;99025.00;;;;341777;28;82634;-93
2022/08/13 01:09:08;;;;;;;;;;;24.80;59.60;24.80;99017.00;;;;340062;28;90490;-93
2022/08/13 01:09:40;;;;;;;;;;;24.80;59.20;24.80;99021.00;;;;343420;28;82456;-92
2022/08/13 01:10:14;;;;;;;;;;;24.80;59.40;24.80;99022.00;;;;341558;28;90491;-93
2022/08/13 01:10:30;;;;;;;;;;;24.80;59.50;24.70;99024.00;;;;340556;28;82639;-93
2022/08/13 01:10:44;;;;;;;;;;;24.80;59.70;24.70;99024.00;;;;342672;28;91667;-92
2022/08/13 01:11:11;;;;;;;;;;;24.70;59.60;24.90;99022.00;;;;343182;28;82455;-93
2022/08/13 01:11:32;;;;;;;;;;;24.80;59.30;24.80;99022.00;;;;342358;28;91587;-92
2022/08/13 01:11:45;;;;;;;;;;;24.80;59.70;24.90;99022.00;;;;343516;28;83492;-93
2022/08/13 01:11:58;;;;;;;;;;;24.80;59.50;24.90;99024.00;;;;342720;28;90293;-92
2022/08/13 01:12:10;;;;;;;;;;;24.80;59.50;24.90;99024.00;;;;341724;28;83580;-92
2022/08/13 01:12:27;;;;;;;;;;;24.80;59.40;24.80;99026.00;;;;341529;28;91605;-92
2022/08/13 01:12:39;;;;;;;;;;;24.80;59.70;24.90;99019.00;;;;343178;28;82595;-93
2022/08/13 01:12:52;;;;;;;;;;;24.80;59.60;25.00;99026.00;;;;341264;28;90812;-93
2022/08/13 01:13:09;;;;;;;;;;;24.80;59.50;25.00;99024.00;;;;343024;28;83486;-93
2022/08/13 01:13:25;;;;;;;;;;;24.80;59.60;25.00;99024.00;;;;341438;28;91228;-93
2022/08/13 01:13:41;;;;;;;;;;;24.80;59.70;24.90;99025.00;;;;341766;28;83291;-93
2022/08/13 01:13:53;;;;;;;;;;;24.80;59.40;24.80;99022.00;;;;341413;28;90528;-93
2022/08/13 01:14:07;;;;;;;;;;;24.80;59.50;24.60;99031.00;;;;341740;28;83544;-93
2022/08/13 01:14:19;;;;;;;;;;;24.80;59.70;24.50;99024.00;;;;342733;28;91780;-92
2022/08/13 01:14:36;;;;;;;;;;;24.80;59.70;24.70;99035.00;;;;344420;28;83456;-93
2022/08/13 01:14:48;;;;;;;;;;;24.80;59.70;24.80;99022.00;;;;342923;28;91418;-93
2022/08/13 01:15:02;;;;;;;;;;;24.80;59.50;24.70;99025.00;;;;341809;28;82581;-93
2022/08/13 01:15:20;;;;;;;;;;;24.80;59.50;24.60;99030.00;;;;341461;28;89470;-92
2022/08/13 01:15:32;;;;;;;;;;;24.80;60.00;24.50;99024.00;;;;341976;28;83463;-92
2022/08/13 01:16:05;;;;;;;;;;;24.80;59.90;24.50;99027.00;;;;341375;28;90355;-92
2022/08/13 01:16:20;;;;;;;;;;;24.80;59.90;24.50;99028.00;;;;341814;28;83556;-92
2022/08/13 01:16:36;;;;;;;;;;;24.70;59.70;24.60;99027.00;;;;340329;28;90447;-92
2022/08/13 01:16:48;;;;;;;;;;;24.80;59.50;24.60;99027.00;;;;340631;28;83325;-92
2022/08/13 01:17:01;;;;;;;;;;;24.70;59.40;24.70;99028.00;;;;342737;28;90381;-92
2022/08/13 01:17:20;;;;;;;;;;;24.70;59.20;24.70;99029.00;;;;343173;28;82619;-92
2022/08/13 01:17:32;;;;;;;;;;;24.70;59.30;24.80;99028.00;;;;339949;28;90347;-93
2022/08/13 01:18:00;;;;;;;;;;;24.70;59.60;24.80;99031.00;;;;343423;28;83420;-92
2022/08/13 01:18:18;;;;;;;;;;;24.70;59.50;24.80;99025.00;;;;342672;28;91837;-92
2022/08/13 01:18:31;;;;;;;;;;;24.70;59.40;24.70;99033.00;;;;343109;28;83458;-93
2022/08/13 01:18:46;;;;;;;;;;;24.70;59.50;24.60;99029.00;;;;340203;28;91926;-92
2022/08/13 01:18:57;;;;;;;;;;;24.70;59.60;24.70;99029.00;;;;343180;28;83514;-92
2022/08/13 01:19:12;;;;;;;;;;;24.70;59.60;24.60;99032.00;;;;342707;28;89279;-92
2022/08/13 01:19:24;;;;;;;;;;;24.70;59.70;24.60;99032.00;;;;341779;28;83456;-93
2022/08/13 01:19:56;;;;;;;;;;;24.60;59.50;24.60;99034.00;;;;342862;28;91269;-92
2022/08/13 01:20:20;;;;;;;;;;;24.70;59.90;24.60;99035.00;;;;343034;28;83560;-92
2022/08/13 01:20:46;;;;;;;;;;;24.70;59.70;24.60;99034.00;;;;340230;28;91911;-93
2022/08/13 01:21:09;;;;;;;;;;;24.70;59.60;24.60;99035.00;;;;340455;28;82683;-92
2022/08/13 01:21:23;;;;;;;;;;;24.70;59.90;24.60;99034.00;;;;340294;28;92107;-92
2022/08/13 01:21:52;;;;;;;;;;;24.60;59.90;24.60;99034.00;;;;341871;28;83599;-92
2022/08/13 01:22:06;;;;;;;;;;;24.60;59.90;24.50;99030.00;;;;342723;28;92490;-92
2022/08/13 01:22:18;;;;;;;;;;;24.60;60.00;24.50;99030.00;;;;342855;28;83588;-92
2022/08/13 01:22:44;;;;;;;;;;;24.60;60.00;24.50;99029.00;;;;342715;28;92144;-92
2022/08/13 01:22:56;;;;;;;;;;;24.60;59.90;24.40;99034.00;;;;340477;28;83226;-92
2022/08/13 01:23:08;;;;;;;;;;;24.60;60.10;24.50;99027.00;;;;342728;28;90317;-92
2022/08/13 01:23:21;;;;;;;;;;;24.60;60.20;24.50;99029.00;;;;340544;28;82602;-93
2022/08/13 01:23:46;;;;;;;;;;;24.60;60.30;24.50;99032.00;;;;342998;28;90600;-92
2022/08/13 01:24:14;;;;;;;;;;;24.60;59.80;24.50;99031.00;;;;339271;28;83353;-92
2022/08/13 01:24:25;;;;;;;;;;;24.60;59.80;24.50;99028.00;;;;340016;28;89908;-93
2022/08/13 01:24:37;;;;;;;;;;;24.60;59.80;24.70;99028.00;;;;341867;28;83367;-93
2022/08/13 01:24:52;;;;;;;;;;;24.50;59.80;24.80;99038.00;;;;341465;28;91458;-92
2022/08/13 01:25:07;;;;;;;;;;;24.60;60.10;24.70;99034.00;;;;343122;28;83461;-93
2022/08/13 01:25:24;;;;;;;;;;;24.60;59.90;24.70;99040.00;;;;342676;28;90400;-92
2022/08/13 01:25:36;;;;;;;;;;;24.60;59.90;24.70;99032.00;;;;340388;28;83621;-92
2022/08/13 01:26:04;;;;;;;;;;;24.60;59.80;24.70;99038.00;;;;341636;28;89066;-93
2022/08/13 01:26:21;;;;;;;;;;;24.60;59.70;24.70;99035.00;;;;340387;28;82623;-92
2022/08/13 01:26:33;;;;;;;;;;;24.60;59.70;24.70;99037.00;;;;342634;28;90610;-93
2022/08/13 01:26:51;;;;;;;;;;;24.60;60.00;24.70;99028.00;;;;344422;28;82659;-93
2022/08/13 01:27:04;;;;;;;;;;;24.60;59.70;24.60;99027.00;;;;340206;28;90600;-92
2022/08/13 01:27:23;;;;;;;;;;;24.60;59.80;24.60;99032.00;;;;343032;28;83342;-92
2022/08/13 01:27:37;;;;;;;;;;;24.60;60.30;24.40;99029.00;;;;343895;28;91776;-92
2022/08/13 01:27:53;;;;;;;;;;;24.60;60.30;24.60;99037.00;;;;341801;28;82690;-92
2022/08/13 01:28:08;;;;;;;;;;;24.60;60.10;24.60;99029.00;;;;341516;28;90811;-93
2022/08/13 01:28:22;;;;;;;;;;;24.60;60.20;24.60;99033.00;;;;340413;28;84699;-92
2022/08/13 01:28:38;;;;;;;;;;;24.60;60.40;24.50;99028.00;;;;341535;28;90346;-93
2022/08/13 01:28:53;;;;;;;;;;;24.50;60.50;24.40;99030.00;;;;343101;28;82503;-92
2022/08/13 01:29:06;;;;;;;;;;;24.60;60.80;24.50;99026.00;;;;342751;28;91446;-92
2022/08/13 01:29:21;;;;;;;;;;;24.50;60.50;24.50;99031.00;;;;340604;28;83058;-92
2022/08/13 01:29:35;;;;;;;;;;;24.50;60.30;24.40;99031.00;;;;341512;28;88630;-92
2022/08/13 01:29:52;;;;;;;;;;;24.50;60.20;24.50;99032.00;;;;337962;28;83399;-92
2022/08/13 01:30:09;;;;;;;;;;;24.50;60.30;24.60;99029.00;;;;340016;28;91516;-92